createdAt,value
2022-10-22T00:01:35.949Z,13.40
2022-10-22T00:05:13.551Z,12.00
2022-10-22T00:09:09.385Z,13.30
2022-10-22T00:12:49.293Z,14.20
2022-10-22T00:16:06.864Z,14.20
2022-10-22T00:19:45.889Z,12.90
2022-10-22T00:23:43.210Z,11.90
2022-10-22T00:27:04.300Z,12.40
2022-10-22T00:31:07.548Z,13.40
2022-10-22T00:34:23.180Z,12.60
2022-10-22T00:38:02.087Z,13.70
2022-10-22T00:41:59.153Z,13.30
2022-10-22T00:45:29.207Z,12.80
2022-10-22T00:49:06.052Z,13.00
2022-10-22T00:53:06.297Z,13.70
2022-10-22T00:56:22.576Z,12.40
2022-10-22T01:00:00.049Z,13.50
2022-10-22T01:03:37.753Z,12.10
2022-10-22T01:07:44.282Z,12.70
2022-10-22T01:11:20.105Z,13.20
2022-10-22T01:15:24.190Z,13.50
2022-10-22T01:18:34.059Z,12.90
2022-10-22T01:22:30.917Z,13.60
2022-10-22T01:26:17.882Z,13.10
2022-10-22T01:30:15.550Z,13.80
2022-10-22T01:33:34.679Z,12.40
2022-10-22T01:37:34.721Z,14.20
2022-10-22T01:40:52.031Z,12.90
2022-10-22T01:48:30.969Z,14.10
2022-10-22T01:52:48.919Z,13.30
2022-10-22T01:56:16.823Z,12.50
2022-10-22T02:00:05.704Z,12.60
2022-10-22T02:04:20.813Z,12.70
2022-10-22T02:08:02.770Z,13.20
2022-10-22T02:11:40.506Z,12.10
2022-10-22T02:15:20.391Z,11.90
2022-10-22T02:19:03.185Z,13.00
2022-10-22T02:22:40.579Z,12.60
2022-10-22T02:26:24.545Z,13.20
2022-10-22T02:30:12.139Z,12.60
2022-10-22T02:33:55.396Z,12.30
2022-10-22T02:37:33.068Z,12.40
2022-10-22T02:41:11.108Z,11.80
2022-10-22T02:44:54.212Z,12.10
2022-10-22T02:48:31.476Z,11.50
2022-10-22T02:52:09.162Z,12.00
2022-10-22T02:55:47.335Z,10.90
2022-10-22T02:59:44.434Z,11.90
2022-10-22T03:03:21.474Z,12.50
2022-10-22T03:07:02.159Z,12.00
2022-10-22T03:10:18.380Z,11.60
2022-10-22T03:13:57.887Z,11.80
2022-10-22T03:17:34.829Z,11.90
2022-10-22T03:21:39.449Z,11.20
2022-10-22T03:25:21.356Z,13.50
2022-10-22T03:29:18.051Z,11.90
2022-10-22T03:32:56.170Z,11.20
2022-10-22T03:36:33.402Z,11.40
2022-10-22T03:39:54.428Z,11.00
2022-10-22T03:43:34.391Z,12.30
2022-10-22T03:47:13.214Z,12.30
2022-10-22T03:50:50.837Z,13.00
2022-10-22T03:54:29.207Z,12.50
2022-10-22T03:58:25.432Z,12.40
2022-10-22T04:01:45.361Z,13.30
2022-10-22T04:05:22.837Z,12.80
2022-10-22T04:09:01.569Z,14.40
2022-10-22T04:12:39.111Z,12.00
2022-10-22T04:16:24.039Z,13.20
2022-10-22T04:20:05.268Z,12.30
2022-10-22T04:23:51.721Z,13.40
2022-10-22T04:27:33.396Z,12.90
2022-10-22T04:31:13.431Z,13.10
2022-10-22T04:34:50.789Z,12.20
2022-10-22T04:38:28.459Z,13.40
2022-10-22T04:42:06.041Z,13.20
2022-10-22T04:45:44.801Z,12.90
2022-10-22T04:49:22.005Z,13.80
2022-10-22T04:53:02.331Z,13.10
2022-10-22T04:56:41.604Z,15.50
2022-10-22T05:00:18.861Z,14.50
2022-10-22T05:03:58.680Z,13.80
2022-10-22T05:07:37.060Z,13.70
2022-10-22T05:11:18.794Z,13.20
2022-10-22T05:14:57.680Z,13.60
2022-10-22T05:18:58.983Z,14.40
2022-10-22T05:22:14.334Z,14.00
2022-10-22T05:25:56.247Z,14.30
2022-10-22T05:29:34.447Z,14.50
2022-10-22T05:33:12.642Z,13.90
2022-10-22T05:36:50.149Z,14.80
2022-10-22T05:40:31.123Z,15.70
2022-10-22T05:44:27.659Z,14.90
2022-10-22T05:47:46.441Z,14.20
2022-10-22T05:51:27.759Z,49.50
2022-10-22T05:55:05.359Z,16.20
2022-10-22T05:58:46.026Z,16.30
2022-10-22T06:02:23.492Z,16.10
2022-10-22T06:06:04.854Z,18.10
2022-10-22T06:09:56.244Z,15.20
2022-10-22T06:13:21.133Z,15.30
2022-10-22T06:17:00.680Z,14.80
2022-10-22T06:20:39.664Z,18.80
2022-10-22T06:24:19.662Z,18.80
2022-10-22T06:27:58.758Z,17.20
2022-10-22T06:31:55.786Z,18.20
2022-10-22T06:35:33.503Z,25.00
2022-10-22T06:39:15.225Z,29.50
2022-10-22T06:42:29.842Z,26.00
2022-10-22T06:46:10.264Z,23.50
2022-10-22T06:49:47.089Z,39.20
2022-10-22T06:53:24.986Z,25.70
2022-10-22T06:57:02.722Z,25.80
2022-10-22T07:00:40.505Z,24.90
2022-10-22T07:04:18.224Z,25.40
2022-10-22T07:08:01.872Z,26.90
2022-10-22T07:11:42.940Z,24.50
2022-10-22T07:15:24.043Z,25.30
2022-10-22T07:19:02.583Z,37.50
2022-10-22T07:22:42.057Z,24.70
2022-10-22T07:26:25.551Z,30.80
2022-10-22T07:30:02.803Z,28.90
2022-10-22T07:33:43.555Z,26.00
2022-10-22T07:37:22.385Z,21.20
2022-10-22T07:41:00.394Z,22.50
2022-10-22T07:44:39.419Z,20.30
2022-10-22T07:48:46.801Z,19.40
2022-10-22T07:52:44.850Z,20.40
2022-10-22T07:56:16.781Z,21.70
2022-10-22T07:59:53.740Z,23.20
2022-10-22T08:03:50.872Z,18.90
2022-10-22T08:07:09.122Z,21.20
2022-10-22T08:10:48.868Z,19.90
2022-10-22T08:14:25.679Z,20.80
2022-10-22T08:18:04.126Z,18.60
2022-10-22T08:21:41.831Z,19.60
2022-10-22T08:25:19.233Z,19.90
2022-10-22T08:28:56.911Z,19.40
2022-10-22T08:32:34.647Z,20.10
2022-10-22T08:36:12.773Z,18.20
2022-10-22T08:39:49.944Z,19.80
2022-10-22T08:43:38.096Z,49.10
2022-10-22T08:47:46.528Z,63.70
2022-10-22T08:51:31.619Z,28.00
2022-10-22T08:55:14.868Z,27.70
2022-10-22T08:58:56.292Z,27.50
2022-10-22T09:02:52.355Z,27.60
2022-10-22T09:06:41.725Z,26.30
2022-10-22T09:10:24.780Z,23.60
2022-10-22T09:14:02.922Z,21.60
2022-10-22T09:17:50.812Z,21.50
2022-10-22T09:22:38.799Z,20.10
2022-10-22T09:25:27.005Z,19.90
2022-10-22T09:27:58.863Z,19.30
2022-10-22T09:30:35.112Z,20.20
2022-10-22T09:33:06.573Z,19.80
2022-10-22T09:35:45.115Z,18.00
2022-10-22T09:38:16.084Z,15.00
2022-10-22T09:40:47.645Z,13.50
2022-10-22T09:43:18.034Z,12.80
2022-10-22T09:45:48.189Z,12.50
2022-10-22T09:50:55.895Z,13.20
2022-10-22T09:53:31.225Z,19.90
2022-10-22T09:56:18.203Z,14.20
2022-10-22T09:58:51.504Z,12.50
2022-10-22T10:01:24.836Z,12.30
2022-10-22T10:03:54.208Z,12.10
2022-10-22T10:06:23.946Z,14.30
2022-10-22T10:08:53.022Z,13.50
2022-10-22T10:11:33.075Z,13.40
2022-10-22T10:14:48.319Z,12.90
2022-10-22T10:17:51.659Z,12.60
2022-10-22T10:20:42.050Z,11.10
2022-10-22T10:26:20.109Z,11.80
2022-10-22T10:28:59.854Z,12.80
2022-10-22T10:31:28.777Z,11.20
2022-10-22T10:34:29.351Z,12.20
2022-10-22T10:37:11.235Z,13.50
2022-10-22T10:40:08.378Z,12.20
2022-10-22T10:42:39.976Z,12.30
2022-10-22T10:45:34.959Z,12.70
2022-10-22T10:48:29.481Z,21.30
2022-10-22T10:51:18.661Z,16.00
2022-10-22T10:53:50.729Z,11.80
2022-10-22T10:56:58.185Z,11.90
2022-10-22T10:59:48.595Z,12.30
2022-10-22T11:02:53.688Z,17.50
2022-10-22T11:05:38.414Z,13.70
2022-10-22T11:08:40.538Z,14.30
2022-10-22T11:11:18.446Z,14.30
2022-10-22T11:13:57.535Z,13.10
2022-10-22T11:16:38.393Z,14.40
2022-10-22T11:19:49.708Z,11.20
2022-10-22T11:22:44.464Z,13.40
2022-10-22T11:25:26.184Z,12.40
2022-10-22T11:28:09.108Z,14.90
2022-10-22T11:30:43.544Z,16.00
2022-10-22T11:33:19.206Z,25.30
2022-10-22T11:35:49.288Z,23.50
2022-10-22T11:38:24.647Z,18.00
2022-10-22T11:41:01.133Z,15.80
2022-10-22T11:43:54.942Z,14.30
2022-10-22T11:46:23.451Z,16.50
2022-10-22T11:49:14.231Z,15.10
2022-10-22T11:51:45.530Z,14.30
2022-10-22T11:54:50.696Z,11.60
2022-10-22T11:57:29.162Z,12.50
2022-10-22T12:00:01.140Z,12.40
2022-10-22T12:06:15.942Z,12.50
2022-10-22T12:08:50.765Z,13.20
2022-10-22T12:11:19.519Z,14.00
2022-10-22T12:14:25.202Z,15.50
2022-10-22T12:17:00.451Z,15.80
2022-10-22T12:19:41.488Z,18.70
2022-10-22T12:22:28.801Z,18.10
2022-10-22T12:25:08.102Z,17.30
2022-10-22T12:27:57.850Z,14.40
2022-10-22T12:30:30.230Z,23.40
2022-10-22T12:33:00.903Z,24.20
2022-10-22T12:35:32.491Z,17.70
2022-10-22T12:38:05.555Z,18.10
2022-10-22T12:40:36.346Z,18.10
2022-10-22T12:43:12.715Z,17.50
2022-10-22T12:45:43.630Z,21.00
2022-10-22T12:48:17.213Z,20.80
2022-10-22T12:50:55.456Z,18.40
2022-10-22T12:53:32.411Z,27.00
2022-10-22T12:56:29.091Z,27.80
2022-10-22T12:59:05.396Z,16.30
2022-10-22T13:01:39.422Z,14.70
2022-10-22T13:04:24.342Z,14.00
2022-10-22T13:07:07.173Z,13.60
2022-10-22T13:13:46.320Z,14.10
2022-10-22T13:18:54.999Z,17.00
2022-10-22T13:21:49.103Z,15.90
2022-10-22T13:24:25.418Z,19.30
2022-10-22T13:26:56.832Z,14.10
2022-10-22T13:29:25.656Z,12.10
2022-10-22T13:31:54.600Z,14.30
2022-10-22T13:34:26.334Z,15.40
2022-10-22T13:36:54.981Z,11.70
2022-10-22T13:39:25.092Z,14.40
2022-10-22T13:44:23.163Z,10.70
2022-10-22T13:46:51.959Z,7.60
2022-10-22T13:49:23.826Z,6.80
2022-10-22T13:51:53.327Z,5.90
2022-10-22T13:54:25.627Z,6.70
2022-10-22T13:56:54.711Z,5.10
2022-10-22T13:59:24.133Z,5.00
2022-10-22T14:01:57.212Z,5.80
2022-10-22T14:04:39.510Z,7.00
2022-10-22T14:07:17.278Z,6.90
2022-10-22T14:09:46.381Z,5.70
2022-10-22T14:12:17.293Z,4.80
2022-10-22T14:14:46.249Z,6.20
2022-10-22T14:17:47.582Z,5.40
2022-10-22T14:20:44.845Z,7.20
2022-10-22T14:23:25.464Z,5.60
2022-10-22T14:25:54.932Z,10.10
2022-10-22T14:28:24.167Z,9.00
2022-10-22T14:30:55.890Z,6.40
2022-10-22T14:33:31.957Z,6.20
2022-10-22T14:36:02.518Z,5.50
2022-10-22T14:38:34.151Z,5.70
2022-10-22T14:41:22.887Z,6.70
2022-10-22T14:43:56.959Z,5.80
2022-10-22T14:46:28.058Z,5.40
2022-10-22T14:48:57.128Z,5.40
2022-10-22T14:51:25.671Z,4.80
2022-10-22T14:53:54.724Z,4.90
2022-10-22T14:56:23.916Z,6.10
2022-10-22T14:58:53.704Z,7.10
2022-10-22T15:01:22.526Z,7.20
2022-10-22T15:03:51.548Z,12.00
2022-10-22T15:06:19.955Z,10.00
2022-10-22T15:08:48.817Z,16.10
2022-10-22T15:11:17.750Z,10.10
2022-10-22T15:13:46.243Z,7.50
2022-10-22T15:16:16.990Z,7.30
2022-10-22T15:18:45.856Z,17.40
2022-10-22T15:21:22.853Z,11.20
2022-10-22T15:23:51.878Z,6.90
2022-10-22T15:26:20.413Z,5.80
2022-10-22T15:28:49.562Z,5.40
2022-10-22T15:31:55.218Z,5.50
2022-10-22T15:34:26.687Z,6.30
2022-10-22T15:37:03.659Z,11.90
2022-10-22T15:39:46.164Z,5.80
2022-10-22T15:42:15.497Z,8.20
2022-10-22T15:44:43.965Z,13.50
2022-10-22T15:47:13.082Z,11.30
2022-10-22T15:49:42.415Z,10.40
2022-10-22T15:52:11.427Z,12.10
2022-10-22T15:54:41.379Z,17.50
2022-10-22T15:57:11.155Z,10.10
2022-10-22T16:02:26.864Z,6.80
2022-10-22T16:04:55.267Z,6.50
2022-10-22T16:11:19.550Z,5.70
2022-10-22T16:13:48.957Z,6.40
2022-10-22T16:22:44.959Z,6.30
2022-10-22T16:25:14.933Z,7.00
2022-10-22T16:30:12.567Z,6.90
2022-10-22T16:32:41.734Z,6.60
2022-10-22T16:35:10.764Z,9.50
2022-10-22T16:37:39.664Z,8.40
2022-10-22T16:40:10.765Z,7.50
2022-10-22T16:42:39.703Z,5.60
2022-10-22T16:45:08.741Z,5.10
2022-10-22T16:47:38.294Z,5.90
2022-10-22T16:50:08.179Z,7.60
2022-10-22T16:52:36.593Z,4.90
2022-10-22T16:55:05.615Z,5.70
2022-10-22T16:57:34.411Z,6.20
2022-10-22T17:00:04.818Z,7.60
2022-10-22T17:08:55.066Z,11.80
2022-10-22T17:11:44.812Z,21.50
2022-10-22T17:14:59.250Z,9.70
2022-10-22T17:18:05.688Z,8.20
2022-10-22T17:21:11.789Z,7.80
2022-10-22T17:24:41.091Z,13.40
2022-10-22T17:30:55.416Z,14.20
2022-10-22T17:37:17.105Z,20.60
2022-10-22T17:40:25.606Z,21.20
2022-10-22T17:43:12.348Z,27.90
2022-10-22T17:46:05.371Z,28.70
2022-10-22T17:49:02.060Z,34.30
2022-10-22T17:51:53.088Z,31.30
2022-10-22T17:54:51.909Z,37.40
2022-10-22T18:00:30.958Z,27.30
2022-10-22T18:03:13.097Z,20.80
2022-10-22T18:05:42.216Z,36.10
2022-10-22T18:08:10.993Z,28.70
2022-10-22T18:10:40.461Z,24.80
2022-10-22T18:13:09.598Z,31.70
2022-10-22T18:15:39.544Z,28.90
2022-10-22T18:18:08.062Z,25.80
2022-10-22T18:20:37.069Z,30.70
2022-10-22T18:23:06.601Z,35.90
2022-10-22T18:25:39.272Z,30.50
2022-10-22T18:28:08.024Z,33.00
2022-10-22T18:30:41.141Z,32.70
2022-10-22T18:33:15.010Z,39.30
2022-10-22T18:35:43.678Z,33.60
2022-10-22T18:38:12.918Z,27.10
2022-10-22T18:40:49.227Z,20.60
2022-10-22T18:43:19.281Z,21.80
2022-10-22T18:45:49.037Z,23.20
2022-10-22T18:50:48.167Z,14.70
2022-10-22T18:53:16.984Z,15.10
2022-10-22T18:55:45.721Z,14.70
2022-10-22T18:58:14.944Z,12.20
2022-10-22T19:00:43.527Z,10.50
2022-10-22T19:03:14.652Z,9.90
2022-10-22T19:05:51.862Z,10.20
2022-10-22T19:08:20.905Z,9.80
2022-10-22T19:10:50.405Z,12.00
2022-10-22T19:13:21.939Z,12.90
2022-10-22T19:15:52.294Z,12.20
2022-10-22T19:18:20.976Z,11.10
2022-10-22T19:20:58.997Z,10.30
2022-10-22T19:23:30.665Z,9.90
2022-10-22T19:26:11.089Z,10.20
2022-10-22T19:28:40.964Z,10.20
2022-10-22T19:31:15.363Z,11.30
2022-10-22T19:33:44.549Z,11.80
2022-10-22T19:36:14.098Z,14.90
2022-10-22T19:38:45.934Z,17.90
2022-10-22T19:41:18.277Z,14.50
2022-10-22T19:43:49.858Z,12.00
2022-10-22T19:46:20.396Z,11.30
2022-10-22T19:48:50.123Z,10.60
2022-10-22T19:51:33.268Z,11.10
2022-10-22T19:54:45.859Z,11.60
2022-10-22T19:59:47.282Z,21.00
2022-10-22T20:02:17.860Z,14.10
2022-10-22T20:04:49.939Z,11.80
2022-10-22T20:07:19.112Z,10.50
2022-10-22T20:09:48.308Z,11.30
2022-10-22T20:12:16.725Z,10.30
2022-10-22T20:14:45.244Z,9.20
2022-10-22T20:17:14.264Z,8.50
2022-10-22T20:19:42.728Z,10.20
2022-10-22T20:22:16.244Z,9.30
2022-10-22T20:24:47.372Z,9.30
2022-10-22T20:27:16.671Z,9.10
2022-10-22T20:29:45.109Z,9.40
2022-10-22T20:32:13.866Z,10.00
2022-10-22T20:34:43.034Z,8.40
2022-10-22T20:37:12.023Z,9.30
2022-10-22T20:39:40.858Z,9.20
2022-10-22T20:42:09.867Z,11.40
2022-10-22T20:44:38.851Z,11.80
2022-10-22T20:47:07.925Z,12.30
2022-10-22T20:49:37.113Z,12.10
2022-10-22T20:52:06.256Z,11.90
2022-10-22T20:54:35.403Z,14.20
2022-10-22T20:57:06.314Z,13.00
2022-10-22T20:59:35.565Z,13.20
2022-10-22T21:02:05.588Z,12.90
2022-10-22T21:04:35.500Z,13.30
2022-10-22T21:07:04.093Z,14.90
2022-10-22T21:09:35.260Z,15.00
2022-10-22T21:12:05.344Z,14.80
2022-10-22T21:17:03.209Z,12.90
2022-10-22T21:19:32.027Z,12.80
2022-10-22T21:22:00.657Z,12.90
2022-10-22T21:24:29.702Z,13.70
2022-10-22T21:26:58.468Z,14.70
2022-10-22T21:29:27.250Z,14.40
2022-10-22T21:31:55.977Z,13.90
2022-10-22T21:34:24.594Z,14.00
2022-10-22T21:36:54.067Z,14.00
2022-10-22T21:39:23.201Z,14.20
2022-10-22T21:41:52.217Z,14.10
2022-10-22T21:44:21.838Z,13.40
2022-10-22T21:46:50.298Z,14.40
2022-10-22T21:49:19.280Z,15.30
2022-10-22T21:51:47.897Z,13.20
2022-10-22T21:54:16.626Z,11.20
2022-10-22T21:56:45.856Z,11.30
2022-10-22T21:59:15.758Z,11.50
2022-10-22T22:01:45.065Z,12.10
2022-10-22T22:04:14.199Z,12.80
2022-10-22T22:06:43.358Z,12.90
2022-10-22T22:09:12.042Z,13.30
2022-10-22T22:11:41.199Z,12.30
2022-10-22T22:14:10.353Z,12.20
2022-10-22T22:16:39.600Z,12.10
2022-10-22T22:19:10.036Z,12.90
2022-10-22T22:21:40.875Z,14.00
2022-10-22T22:24:13.912Z,13.70
2022-10-22T22:26:47.195Z,13.40
2022-10-22T22:29:19.190Z,14.70
2022-10-22T22:31:52.172Z,14.70
2022-10-22T22:34:24.097Z,13.30
2022-10-22T22:36:53.997Z,13.10
2022-10-22T22:39:23.894Z,12.90
2022-10-22T22:44:21.883Z,13.40
2022-10-22T22:46:50.673Z,15.40
2022-10-22T22:49:19.404Z,14.40
2022-10-22T22:51:49.934Z,15.20
2022-10-22T22:54:18.476Z,14.50
2022-10-22T22:56:51.236Z,14.70
2022-10-22T22:59:19.836Z,14.60
2022-10-22T23:01:50.361Z,14.00
2022-10-22T23:04:24.054Z,13.80
2022-10-22T23:06:53.096Z,13.40
2022-10-22T23:09:22.061Z,12.90
2022-10-22T23:11:51.497Z,12.70
2022-10-22T23:14:21.102Z,12.10
2022-10-22T23:16:51.775Z,8.60
2022-10-22T23:21:53.477Z,11.90
2022-10-22T23:24:26.994Z,13.40
2022-10-22T23:26:59.707Z,13.60
2022-10-22T23:29:31.303Z,12.70
2022-10-22T23:32:01.982Z,12.70
2022-10-22T23:34:32.038Z,13.00
2022-10-22T23:37:00.922Z,12.40
2022-10-22T23:39:30.417Z,11.20
2022-10-22T23:41:59.420Z,11.40
2022-10-22T23:44:28.676Z,11.60
2022-10-22T23:46:57.696Z,12.70
2022-10-22T23:49:26.274Z,12.00
2022-10-22T23:51:55.248Z,12.20
2022-10-22T23:54:23.956Z,11.60
2022-10-22T23:56:52.914Z,10.90
2022-10-22T23:59:22.022Z,10.40
